Saint Xavier, Montana
Current Conditions -  °F | °C
As of 9:53 AM on Thursday 18 Dec 2014 (Local Time) from KBIL Reporting Station
Scattered Clouds Scattered Clouds  
Wind Chill: 16°   Ceiling: Unl
Heat Index: 29°   Visibility: 10mi
Dew Point: 19°   Wind: 18mph
Humidity: 67%   Direction: 220°SW
Pressure: 29.98"   Gusts: NA
Location:  45.46°N, 107.72°W
Report Text: KBIL 181653Z 22016KT 10SM SCT100 M02/M07 A2998 RMK AO2 SLP189 ACSL DSNT SE-S T10171072
Loading
Personal Weather Stations






























Interactive Weather Map New forecast layout! Learn more

10-Day Weather Forecast

Advertisements
Track Severe Weather on mobile